Time;durP1;ratioP1;P1;durP2;ratioP2;P2;SDS_P1;SDS_P2;PMS_P1;PMS_P2;Temp;Humidity;BMP_temperature;BMP_pressure;BME280_temperature;BME280_humidity;BME280_pressure;Samples;Min_cycle;Max_cycle;Signal;HPM_P1;HPM_P2
2023/09/22 00:00:15;;;;;;;4.40;4.07;;;14.50;99.90;;;;;;5034670;28;20171;-73
2023/09/22 00:02:42;;;;;;;5.00;4.03;;;14.40;99.90;;;;;;5034151;28;20230;-74
2023/09/22 00:05:09;;;;;;;4.60;4.30;;;14.50;99.90;;;;;;5034605;28;20176;-74
2023/09/22 00:07:35;;;;;;;4.03;3.73;;;14.50;99.90;;;;;;5034215;28;20286;-72
2023/09/22 00:10:01;;;;;;;3.87;3.67;;;14.40;99.90;;;;;;5034896;28;20564;-73
2023/09/22 00:12:29;;;;;;;4.33;4.03;;;14.40;99.90;;;;;;5034683;28;20202;-73
2023/09/22 00:14:54;;;;;;;3.90;3.60;;;14.40;99.90;;;;;;5034166;28;20175;-73
2023/09/22 00:17:20;;;;;;;4.93;3.80;;;14.30;99.90;;;;;;5034361;28;20266;-73
2023/09/22 00:19:46;;;;;;;4.40;4.03;;;14.40;99.90;;;;;;5033964;28;20175;-72
2023/09/22 00:22:11;;;;;;;4.27;3.90;;;14.30;99.90;;;;;;5034201;28;20238;-74
2023/09/22 00:24:37;;;;;;;3.93;3.63;;;14.30;99.90;;;;;;5034664;28;20283;-74
2023/09/22 00:27:02;;;;;;;3.93;3.63;;;14.30;99.90;;;;;;5033940;28;20226;-74
2023/09/22 00:29:28;;;;;;;4.50;4.10;;;14.30;99.90;;;;;;5034470;28;20262;-73
2023/09/22 00:31:54;;;;;;;4.27;3.97;;;14.20;99.90;;;;;;5033645;28;20262;-75
2023/09/22 00:34:19;;;;;;;4.60;4.20;;;14.20;99.90;;;;;;5033968;28;20179;-71
2023/09/22 00:36:45;;;;;;;4.20;3.90;;;14.20;99.90;;;;;;5033684;28;20655;-73
2023/09/22 00:39:11;;;;;;;4.40;4.10;;;14.20;99.90;;;;;;5033852;28;20221;-73
2023/09/22 00:41:36;;;;;;;4.23;3.83;;;14.10;99.90;;;;;;5032403;28;20211;-74
2023/09/22 00:44:02;;;;;;;5.73;4.20;;;14.00;99.90;;;;;;5033682;28;20320;-74
2023/09/22 00:46:28;;;;;;;4.20;3.90;;;14.00;99.90;;;;;;5033728;28;20209;-73
2023/09/22 00:48:56;;;;;;;4.23;3.93;;;14.00;99.90;;;;;;5033599;28;20178;-73
2023/09/22 00:51:22;;;;;;;4.00;3.60;;;13.90;99.90;;;;;;5033560;28;20226;-74
2023/09/22 00:53:50;;;;;;;4.33;3.93;;;13.90;99.90;;;;;;5033414;28;20184;-73
2023/09/22 00:56:19;;;;;;;4.50;4.20;;;13.90;99.90;;;;;;5040432;28;20270;-72
2023/09/22 00:58:45;;;;;;;4.50;4.10;;;13.90;99.90;;;;;;5033248;28;20558;-74
2023/09/22 01:01:11;;;;;;;4.53;4.13;;;13.80;99.90;;;;;;5033230;28;20199;-72
2023/09/22 01:03:36;;;;;;;4.30;4.00;;;13.80;99.90;;;;;;5032925;28;20214;-74
2023/09/22 01:06:03;;;;;;;4.90;4.50;;;13.80;99.90;;;;;;5033515;28;20227;-72
2023/09/22 01:08:28;;;;;;;4.93;4.30;;;13.70;99.90;;;;;;5033632;28;20183;-73
2023/09/22 01:10:54;;;;;;;4.33;4.00;;;13.60;99.90;;;;;;5032823;28;20174;-73
2023/09/22 01:13:20;;;;;;;4.70;3.93;;;13.60;99.90;;;;;;5033316;28;20194;-72
2023/09/22 01:15:46;;;;;;;6.17;3.90;;;13.60;99.90;;;;;;5033403;28;20175;-72
2023/09/22 01:18:15;;;;;;;4.97;4.27;;;13.50;99.90;;;;;;5033234;28;20213;-73
2023/09/22 01:20:43;;;;;;;4.90;4.43;;;13.50;99.90;;;;;;5032754;28;20679;-75
2023/09/22 01:23:12;;;;;;;4.13;3.83;;;13.40;99.90;;;;;;5033356;28;20204;-73
2023/09/22 01:25:46;;;;;;;4.80;4.40;;;13.40;99.90;;;;;;5032922;28;20187;-73
2023/09/22 01:28:12;;;;;;;10.00;4.07;;;13.30;99.90;;;;;;5032973;28;20186;-72
2023/09/22 01:30:39;;;;;;;5.80;4.20;;;13.20;99.90;;;;;;5032548;28;20258;-71
2023/09/22 01:33:05;;;;;;;4.97;3.90;;;13.20;99.90;;;;;;5032671;28;20187;-72
2023/09/22 01:35:32;;;;;;;6.43;4.03;;;13.20;99.90;;;;;;5032826;28;20232;-71
2023/09/22 01:38:23;;;;;;;4.23;3.90;;;13.20;99.90;;;;;;5024766;28;20341;-71
2023/09/22 01:40:50;;;;;;;6.03;4.17;;;13.10;99.90;;;;;;5032102;28;20266;-72
2023/09/22 01:43:16;;;;;;;7.30;4.20;;;13.00;99.90;;;;;;5032549;28;20195;-73
2023/09/22 01:45:43;;;;;;;4.40;4.10;;;13.10;99.90;;;;;;5032433;28;20276;-73
2023/09/22 01:48:09;;;;;;;4.63;4.23;;;13.00;99.90;;;;;;5032037;28;20256;-73
2023/09/22 01:50:37;;;;;;;4.47;4.13;;;13.00;99.90;;;;;;5032387;28;20172;-72
2023/09/22 01:53:05;;;;;;;5.90;4.37;;;13.00;99.90;;;;;;5032493;28;20671;-73
2023/09/22 01:55:31;;;;;;;4.80;4.10;;;12.90;99.90;;;;;;5032444;28;20249;-73
2023/09/22 01:57:57;;;;;;;4.43;4.07;;;12.90;99.90;;;;;;5032255;28;20191;-73
2023/09/22 02:00:23;;;;;;;5.07;4.67;;;12.90;99.90;;;;;;5032279;28;20179;-72
2023/09/22 02:02:50;;;;;;;4.40;4.10;;;12.90;99.90;;;;;;5031521;28;20205;-73
2023/09/22 02:05:16;;;;;;;4.60;4.20;;;12.90;99.90;;;;;;5037321;28;20538;-74
2023/09/22 02:07:44;;;;;;;4.40;3.90;;;12.80;99.90;;;;;;5034716;28;20290;-74
2023/09/22 02:10:13;;;;;;;4.30;4.00;;;12.80;99.90;;;;;;5032082;28;20179;-74
2023/09/22 02:12:40;;;;;;;4.33;3.93;;;12.80;99.90;;;;;;5031948;28;20206;-74
2023/09/22 02:15:09;;;;;;;7.83;4.10;;;12.70;99.90;;;;;;5032083;28;20168;-75
2023/09/22 02:17:39;;;;;;;5.53;4.20;;;12.70;99.90;;;;;;5032220;28;20171;-74
2023/09/22 02:20:18;;;;;;;4.33;3.93;;;12.70;99.90;;;;;;5026056;28;20183;-73
2023/09/22 02:22:47;;;;;;;4.47;4.07;;;12.70;99.90;;;;;;5031884;28;20253;-74
2023/09/22 02:25:19;;;;;;;4.87;4.00;;;12.70;99.90;;;;;;5031943;28;20194;-75
2023/09/22 02:27:45;;;;;;;4.77;4.37;;;12.60;99.90;;;;;;5031054;28;20257;-74
2023/09/22 02:30:11;;;;;;;4.30;3.90;;;12.60;99.90;;;;;;5031794;28;20650;-73
2023/09/22 02:32:40;;;;;;;4.50;4.10;;;12.60;99.90;;;;;;5031718;28;20230;-73
2023/09/22 02:35:07;;;;;;;7.40;4.23;;;12.50;99.90;;;;;;5024378;28;20187;-74
2023/09/22 02:37:33;;;;;;;5.03;3.90;;;12.50;99.90;;;;;;5031873;28;20183;-74
2023/09/22 02:39:58;;;;;;;5.53;3.90;;;12.50;99.90;;;;;;5030592;28;20183;-72
2023/09/22 02:42:24;;;;;;;4.10;3.80;;;12.40;99.90;;;;;;5031680;28;20215;-74
2023/09/22 02:44:50;;;;;;;5.57;3.80;;;12.40;99.90;;;;;;5032564;28;20199;-74
2023/09/22 02:47:15;;;;;;;4.13;3.73;;;12.50;99.90;;;;;;5031612;28;20218;-75
2023/09/22 02:49:43;;;;;;;13.93;4.30;;;12.40;99.90;;;;;;5031428;28;20171;-73
2023/09/22 02:52:08;;;;;;;3.77;3.50;;;12.50;99.90;;;;;;5031635;28;20199;-74
2023/09/22 02:54:34;;;;;;;4.40;3.80;;;12.50;99.90;;;;;;5031690;28;20697;-73
2023/09/22 02:57:00;;;;;;;5.33;4.20;;;12.50;99.90;;;;;;5031236;28;20294;-72
2023/09/22 02:59:26;;;;;;;4.27;3.97;;;12.50;99.90;;;;;;5032589;28;20218;-72
2023/09/22 03:01:52;;;;;;;4.47;4.03;;;12.50;99.90;;;;;;5035985;28;20242;-72
2023/09/22 03:04:17;;;;;;;4.33;4.03;;;12.50;99.90;;;;;;5031177;28;20527;-75
2023/09/22 03:06:43;;;;;;;4.33;4.03;;;12.40;99.90;;;;;;5031657;28;20584;-75
2023/09/22 03:09:09;;;;;;;5.60;4.00;;;12.50;99.90;;;;;;5031224;28;20208;-73
2023/09/22 03:11:36;;;;;;;6.87;3.90;;;12.50;99.90;;;;;;5031254;28;20197;-73
2023/09/22 03:14:03;;;;;;;4.40;4.00;;;12.60;99.90;;;;;;5031233;28;20168;-72
2023/09/22 03:16:29;;;;;;;5.00;4.20;;;12.60;99.90;;;;;;5031330;28;20182;-73
2023/09/22 03:18:57;;;;;;;4.77;3.70;;;12.70;99.90;;;;;;5031133;28;20210;-74
2023/09/22 03:21:24;;;;;;;4.50;4.10;;;12.70;99.90;;;;;;5031595;28;20223;-75
2023/09/22 03:23:50;;;;;;;4.50;4.20;;;12.80;99.90;;;;;;5031084;28;20201;-74
2023/09/22 03:26:18;;;;;;;5.07;4.00;;;12.80;99.90;;;;;;5029966;28;20274;-72
2023/09/22 03:28:44;;;;;;;4.30;4.00;;;12.80;99.90;;;;;;5031154;28;20185;-75
2023/09/22 03:31:09;;;;;;;6.27;4.30;;;12.90;99.90;;;;;;5030714;28;20728;-73
2023/09/22 03:33:35;;;;;;;92.20;82.23;;;12.80;99.90;;;;;;5031512;28;20172;-74
2023/09/22 03:36:01;;;;;;;4.47;4.03;;;12.80;99.90;;;;;;5039310;28;20266;-74
2023/09/22 03:38:28;;;;;;;5.10;4.00;;;12.90;99.90;;;;;;5031326;28;20203;-74
2023/09/22 03:41:00;;;;;;;12.17;11.27;;;12.90;99.90;;;;;;5030580;28;20179;-73
2023/09/22 03:43:27;;;;;;;4.20;3.80;;;12.90;99.90;;;;;;5030640;28;20303;-74
2023/09/22 03:45:55;;;;;;;4.20;3.90;;;12.90;99.90;;;;;;5030829;28;20578;-72
2023/09/22 03:48:22;;;;;;;7.40;4.47;;;13.00;99.90;;;;;;5031857;28;20180;-74
2023/09/22 03:50:48;;;;;;;4.20;3.80;;;13.00;99.90;;;;;;5030783;28;20183;-73
2023/09/22 03:53:13;;;;;;;3.70;3.47;;;13.00;99.90;;;;;;5030835;28;20199;-73
2023/09/22 03:55:39;;;;;;;5.20;3.50;;;13.00;99.90;;;;;;5031215;28;20183;-74
2023/09/22 03:58:05;;;;;;;3.63;3.33;;;13.10;99.90;;;;;;5032051;28;20184;-73
2023/09/22 04:00:31;;;;;;;3.80;3.50;;;13.10;99.90;;;;;;5035455;28;20325;-73
2023/09/22 04:02:57;;;;;;;3.80;3.50;;;13.10;99.90;;;;;;5030468;28;20203;-73
2023/09/22 04:05:23;;;;;;;4.90;3.70;;;13.10;99.90;;;;;;5031190;28;20178;-73
2023/09/22 04:07:49;;;;;;;4.90;3.50;;;13.00;99.90;;;;;;5030572;28;20218;-72
2023/09/22 04:10:16;;;;;;;5.53;5.13;;;13.00;99.90;;;;;;5030685;28;20184;-72
2023/09/22 04:12:42;;;;;;;3.40;3.20;;;13.00;99.90;;;;;;5033542;28;20202;-73
2023/09/22 04:15:08;;;;;;;4.17;3.40;;;13.00;99.90;;;;;;5033101;28;20176;-73
2023/09/22 04:17:34;;;;;;;4.63;4.03;;;13.00;99.90;;;;;;5035862;28;20183;-72
2023/09/22 04:20:00;;;;;;;7.60;5.87;;;12.90;99.90;;;;;;5034392;28;20187;-72
2023/09/22 04:22:30;;;;;;;4.97;4.50;;;12.90;99.90;;;;;;5034362;28;20713;-72
2023/09/22 04:25:07;;;;;;;4.57;3.67;;;13.00;99.90;;;;;;5034454;28;20176;-72
2023/09/22 04:27:35;;;;;;;3.93;3.60;;;13.00;99.90;;;;;;5034349;28;20721;-72
2023/09/22 04:30:03;;;;;;;4.03;3.73;;;13.00;99.90;;;;;;5041388;28;20175;-73
2023/09/22 04:32:33;;;;;;;4.37;3.93;;;13.00;99.90;;;;;;5034163;28;20666;-73
2023/09/22 04:34:59;;;;;;;4.20;3.90;;;13.00;99.90;;;;;;5037432;28;20709;-71
2023/09/22 04:37:25;;;;;;;4.27;3.87;;;13.00;99.90;;;;;;5034092;28;20220;-72
2023/09/22 04:39:52;;;;;;;4.00;3.70;;;13.00;99.90;;;;;;5033688;28;20192;-72
2023/09/22 04:42:18;;;;;;;3.90;3.60;;;13.00;99.90;;;;;;5033874;28;20251;-73
2023/09/22 04:44:45;;;;;;;4.33;3.73;;;13.00;99.90;;;;;;5033929;28;20213;-72
2023/09/22 04:47:10;;;;;;;4.47;4.07;;;13.00;99.90;;;;;;5034753;28;20207;-73
2023/09/22 04:49:36;;;;;;;6.13;3.93;;;13.10;99.90;;;;;;5033661;28;20186;-70
2023/09/22 04:52:05;;;;;;;3.90;3.50;;;13.10;99.90;;;;;;5034146;28;20373;-73
2023/09/22 04:54:31;;;;;;;4.27;3.97;;;13.20;99.90;;;;;;5033879;28;20176;-73
2023/09/22 04:56:57;;;;;;;4.30;4.00;;;13.20;99.90;;;;;;5033626;28;20187;-71
2023/09/22 04:59:23;;;;;;;9.30;3.80;;;13.20;99.90;;;;;;5033799;28;20176;-71
2023/09/22 05:01:49;;;;;;;8.07;4.30;;;13.20;99.90;;;;;;5033387;28;20199;-73
2023/09/22 05:04:15;;;;;;;5.50;3.87;;;13.20;99.90;;;;;;5033110;28;20179;-72
2023/09/22 05:06:43;;;;;;;6.17;3.97;;;13.10;99.90;;;;;;5033554;28;20215;-73
2023/09/22 05:09:09;;;;;;;4.83;4.23;;;13.20;99.90;;;;;;5033267;28;20183;-74
2023/09/22 05:11:35;;;;;;;4.13;3.83;;;13.20;99.90;;;;;;5033397;28;20218;-72
2023/09/22 05:14:00;;;;;;;5.23;4.23;;;13.20;99.90;;;;;;5033240;28;20261;-73
2023/09/22 05:16:26;;;;;;;7.90;4.00;;;13.20;99.90;;;;;;5033332;28;20175;-73
2023/09/22 05:18:52;;;;;;;4.30;3.90;;;13.20;99.90;;;;;;5033059;28;20655;-72
2023/09/22 05:21:18;;;;;;;6.57;4.10;;;13.10;99.90;;;;;;5032694;28;20282;-72
2023/09/22 05:23:43;;;;;;;4.97;3.90;;;13.00;99.90;;;;;;5032153;28;20206;-73
2023/09/22 05:26:09;;;;;;;7.13;4.27;;;13.00;99.90;;;;;;5032967;28;20618;-73
2023/09/22 05:28:36;;;;;;;3.90;3.57;;;12.90;99.90;;;;;;5032780;28;20182;-74
2023/09/22 05:31:04;;;;;;;4.37;4.07;;;12.80;99.90;;;;;;5034478;28;20254;-73
2023/09/22 05:33:31;;;;;;;4.50;4.03;;;12.80;99.90;;;;;;5038385;28;20186;-73
2023/09/22 05:35:57;;;;;;;5.07;4.23;;;12.80;99.90;;;;;;5032627;28;20184;-71
2023/09/22 05:38:23;;;;;;;4.47;4.10;;;12.70;99.90;;;;;;5032725;28;20175;-72
2023/09/22 05:40:48;;;;;;;4.70;3.83;;;12.80;99.90;;;;;;5034722;28;20195;-71
2023/09/22 05:43:14;;;;;;;4.40;3.93;;;12.80;99.90;;;;;;5032197;28;20732;-72
2023/09/22 05:45:41;;;;;;;4.80;4.40;;;12.80;99.90;;;;;;5032556;28;20191;-71
2023/09/22 05:48:09;;;;;;;5.73;4.37;;;12.80;99.90;;;;;;5040697;28;20555;-73
2023/09/22 05:50:36;;;;;;;5.00;4.40;;;12.80;99.90;;;;;;5032548;28;20184;-72
2023/09/22 05:53:04;;;;;;;5.10;4.57;;;12.80;99.90;;;;;;5032800;28;20199;-75
2023/09/22 05:55:30;;;;;;;4.83;4.47;;;12.70;99.90;;;;;;5032606;28;20184;-74
2023/09/22 05:57:56;;;;;;;8.47;7.97;;;12.80;99.90;;;;;;5033329;28;20183;-74
2023/09/22 06:00:26;;;;;;;22.53;20.67;;;12.80;99.90;;;;;;5039125;28;20263;-72
2023/09/22 06:02:52;;;;;;;5.70;5.10;;;12.80;99.90;;;;;;5031866;28;20215;-73
2023/09/22 06:05:19;;;;;;;4.87;4.50;;;12.80;99.90;;;;;;5032281;28;20253;-74
2023/09/22 06:07:45;;;;;;;10.83;10.03;;;12.80;99.90;;;;;;5035944;28;20215;-72
2023/09/22 06:10:11;;;;;;;5.90;4.33;;;12.80;99.90;;;;;;5031670;28;20267;-72
2023/09/22 06:12:37;;;;;;;6.20;4.43;;;12.80;99.90;;;;;;5029801;28;20199;-71
2023/09/22 06:15:07;;;;;;;6.37;4.63;;;12.80;99.90;;;;;;5031854;28;20282;-72
2023/09/22 06:17:37;;;;;;;6.20;4.90;;;12.90;99.90;;;;;;5031717;28;20187;-71
2023/09/22 06:20:09;;;;;;;5.90;5.47;;;12.90;99.90;;;;;;5031822;28;20190;-72
2023/09/22 06:22:35;;;;;;;5.60;5.13;;;12.90;99.90;;;;;;5031825;28;20206;-72
2023/09/22 06:25:00;;;;;;;4.17;3.80;;;12.90;99.90;;;;;;5037624;28;20194;-73
2023/09/22 06:27:26;;;;;;;10.23;6.27;;;12.90;99.90;;;;;;5031517;28;20290;-71
2023/09/22 06:29:53;;;;;;;7.67;7.03;;;12.90;99.90;;;;;;5031295;28;20183;-73
2023/09/22 06:32:18;;;;;;;5.17;4.67;;;12.90;99.90;;;;;;5030263;28;20690;-73
2023/09/22 06:34:44;;;;;;;11.13;5.90;;;12.90;99.90;;;;;;5031163;28;20180;-71
2023/09/22 06:37:09;;;;;;;5.33;4.47;;;13.00;99.90;;;;;;5031297;28;20186;-71
2023/09/22 06:39:35;;;;;;;6.07;5.67;;;13.10;99.90;;;;;;5037094;28;20268;-72
2023/09/22 06:42:01;;;;;;;8.07;4.60;;;13.30;99.90;;;;;;5032949;28;20199;-71
2023/09/22 06:44:27;;;;;;;5.13;4.20;;;13.50;99.90;;;;;;5031616;28;20191;-71
2023/09/22 06:46:53;;;;;;;4.17;3.77;;;13.90;99.90;;;;;;5029874;28;20210;-71
2023/09/22 06:49:19;;;;;;;5.73;3.90;;;14.30;99.90;;;;;;5029918;28;20218;-71
2023/09/22 06:51:45;;;;;;;3.50;3.20;;;14.90;99.90;;;;;;5031156;28;20222;-74
2023/09/22 06:54:10;;;;;;;3.40;3.00;;;15.50;99.90;;;;;;5031140;28;20545;-71
2023/09/22 06:56:36;;;;;;;3.00;2.70;;;16.10;99.90;;;;;;5031300;28;20209;-72
2023/09/22 06:59:02;;;;;;;3.73;2.93;;;16.70;99.90;;;;;;5031240;28;20187;-74
2023/09/22 07:01:28;;;;;;;3.50;2.53;;;17.20;99.90;;;;;;5031529;28;20207;-72
2023/09/22 07:03:53;;;;;;;5.67;3.50;;;17.60;99.90;;;;;;5029732;28;20261;-73
2023/09/22 07:06:20;;;;;;;2.93;2.47;;;17.80;99.90;;;;;;5031392;28;20210;-74
2023/09/22 07:08:46;;;;;;;2.77;2.67;;;18.10;99.90;;;;;;5031639;28;20291;-73
2023/09/22 07:11:13;;;;;;;6.33;3.57;;;18.30;99.90;;;;;;5030968;28;20207;-72
2023/09/22 07:13:40;;;;;;;2.57;2.47;;;18.40;99.90;;;;;;5031544;28;20187;-73
2023/09/22 07:16:07;;;;;;;3.30;3.00;;;18.40;99.90;;;;;;5030816;28;20262;-73
2023/09/22 07:18:32;;;;;;;3.50;2.53;;;18.30;99.90;;;;;;5031340;28;20183;-73
2023/09/22 07:21:00;;;;;;;2.83;2.63;;;18.00;99.90;;;;;;5030649;28;20186;-73
2023/09/22 07:23:25;;;;;;;4.33;4.00;;;17.80;99.90;;;;;;5035718;28;20274;-75
2023/09/22 07:26:05;;;;;;;3.60;3.40;;;17.50;99.90;;;;;;5030820;28;20618;-72
2023/09/22 07:28:32;;;;;;;5.77;4.37;;;17.30;99.90;;;;;;5030937;28;20210;-72
2023/09/22 07:30:58;;;;;;;3.43;2.93;;;17.20;99.90;;;;;;5030327;28;20180;-72
2023/09/22 07:33:30;;;;;;;6.57;4.03;;;17.30;99.90;;;;;;5030778;28;20197;-73
2023/09/22 07:35:57;;;;;;;3.40;2.30;;;17.50;99.90;;;;;;5031993;28;20719;-73
2023/09/22 07:38:23;;;;;;;3.83;2.60;;;17.70;99.90;;;;;;5030869;28;20210;-71
2023/09/22 07:40:49;;;;;;;3.00;2.57;;;18.00;99.90;;;;;;5030807;28;20211;-72
2023/09/22 07:43:15;;;;;;;2.37;2.17;;;18.30;99.90;;;;;;5030460;28;20230;-72
2023/09/22 07:45:40;;;;;;;6.53;2.30;;;18.60;99.90;;;;;;5030967;28;20646;-72
2023/09/22 07:48:06;;;;;;;2.97;2.20;;;18.80;99.90;;;;;;5040923;28;20183;-72
2023/09/22 07:50:34;;;;;;;7.33;6.90;;;19.10;99.90;;;;;;5034877;28;20186;-74
2023/09/22 07:53:00;;;;;;;2.47;2.27;;;19.50;99.90;;;;;;5034483;28;20199;-74
2023/09/22 07:55:26;;;;;;;3.97;2.47;;;19.70;99.90;;;;;;5037592;28;20199;-75
2023/09/22 07:57:51;;;;;;;2.67;2.47;;;20.00;99.90;;;;;;5036939;28;20187;-74
2023/09/22 08:00:18;;;;;;;10.18;4.05;;;20.40;99.90;;;;;;5034057;28;20262;-74
2023/09/22 08:02:45;;;;;;;3.50;2.45;;;21.00;99.90;;;;;;5034311;28;20203;-74
2023/09/22 08:05:15;;;;;;;2.58;2.10;;;21.50;99.90;;;;;;5037537;28;20206;-73
2023/09/22 08:07:44;;;;;;;3.50;1.70;;;22.00;99.90;;;;;;5034560;28;20218;-73
2023/09/22 08:10:13;;;;;;;2.50;2.00;;;22.50;99.90;;;;;;5034019;28;20171;-73
2023/09/22 08:12:40;;;;;;;2.65;2.10;;;22.80;99.90;;;;;;5034978;28;20270;-72
2023/09/22 08:15:07;;;;;;;3.15;2.17;;;22.90;99.90;;;;;;5035570;28;20179;-72
2023/09/22 08:17:33;;;;;;;5.68;2.00;;;22.90;99.90;;;;;;5035532;28;20221;-72
2023/09/22 08:19:59;;;;;;;2.47;1.90;;;22.90;99.90;;;;;;5034660;28;20179;-73
2023/09/22 08:22:26;;;;;;;2.72;1.95;;;22.90;99.90;;;;;;5035517;28;20199;-71
2023/09/22 08:24:52;;;;;;;2.08;1.98;;;22.90;99.90;;;;;;5035490;28;20171;-71
2023/09/22 08:27:18;;;;;;;5.97;1.90;;;22.80;99.90;;;;;;5034961;28;20201;-72
2023/09/22 08:29:43;;;;;;;2.95;2.20;;;23.10;99.90;;;;;;5035127;28;20163;-72
2023/09/22 08:32:10;;;;;;;2.47;2.15;;;23.40;99.90;;;;;;5034013;28;20210;-73
2023/09/22 08:34:38;;;;;;;3.25;2.40;;;23.60;99.90;;;;;;5034197;28;20262;-73
2023/09/22 08:37:04;;;;;;;2.63;2.42;;;23.50;99.90;;;;;;5034022;28;20237;-72
2023/09/22 08:39:30;;;;;;;2.13;2.00;;;23.50;99.90;;;;;;5034023;28;20215;-74
2023/09/22 08:41:58;;;;;;;2.13;1.85;;;23.50;99.90;;;;;;5033864;28;20214;-70
2023/09/22 08:44:25;;;;;;;2.15;1.92;;;23.20;99.90;;;;;;5033851;28;20179;-72
2023/09/22 08:46:52;;;;;;;2.50;2.30;;;23.00;99.90;;;;;;5033698;28;20568;-71
2023/09/22 08:49:21;;;;;;;2.08;1.92;;;22.90;99.90;;;;;;5033368;28;20179;-71
2023/09/22 08:51:49;;;;;;;2.47;2.28;;;22.20;99.90;;;;;;5033460;28;20282;-73
2023/09/22 08:54:15;;;;;;;2.97;2.78;;;21.60;99.90;;;;;;5033391;28;20184;-72
2023/09/22 08:56:41;;;;;;;2.87;2.60;;;21.00;99.90;;;;;;5033532;28;20191;-72
2023/09/22 08:59:09;;;;;;;3.63;2.60;;;20.20;99.90;;;;;;5031839;28;20175;-70
2023/09/22 09:01:38;;;;;;;2.30;2.20;;;19.40;99.90;;;;;;5033154;28;20202;-71
2023/09/22 09:04:30;;;;;;;2.47;2.27;;;18.70;99.90;;;;;;5033277;28;20180;-72
2023/09/22 09:06:56;;;;;;;2.90;2.63;;;18.70;99.90;;;;;;5033156;28;20206;-72
2023/09/22 09:09:21;;;;;;;3.20;2.95;;;19.00;99.90;;;;;;5031811;28;20174;-72
2023/09/22 09:12:00;;;;;;;6.28;5.88;;;19.30;99.90;;;;;;5033106;28;20277;-73
2023/09/22 09:14:31;;;;;;;3.30;3.05;;;19.90;99.90;;;;;;5033270;28;20171;-72
2023/09/22 09:16:57;;;;;;;3.78;2.80;;;20.50;99.90;;;;;;5033211;28;20171;-72
2023/09/22 09:19:24;;;;;;;3.90;2.88;;;21.20;99.90;;;;;;5032340;28;20543;-73
2023/09/22 09:22:12;;;;;;;2.70;2.50;;;21.60;99.90;;;;;;5032860;28;20207;-72
2023/09/22 09:24:38;;;;;;;2.50;2.30;;;22.00;99.90;;;;;;5033205;28;20631;-72
2023/09/22 09:27:17;;;;;;;2.85;2.08;;;22.20;99.90;;;;;;5032948;28;20204;-72
2023/09/22 09:29:47;;;;;;;2.42;2.22;;;22.00;99.90;;;;;;5032985;28;20171;-71
2023/09/22 09:32:24;;;;;;;4.50;2.40;;;22.00;99.90;;;;;;5032739;28;20196;-75
2023/09/22 09:34:50;;;;;;;4.63;2.80;;;21.60;99.90;;;;;;5032845;28;20168;-72
2023/09/22 09:37:16;;;;;;;3.35;2.78;;;21.40;99.90;;;;;;5032440;28;20234;-73
2023/09/22 09:39:54;;;;;;;3.13;2.83;;;21.50;99.90;;;;;;5032632;28;20405;-72
2023/09/22 09:42:23;;;;;;;2.58;2.42;;;21.20;99.90;;;;;;5032344;28;20218;-73
2023/09/22 09:45:01;;;;;;;3.58;2.25;;;21.20;99.90;;;;;;5032696;28;20270;-73
2023/09/22 09:47:35;;;;;;;4.18;3.88;;;21.20;99.90;;;;;;5032403;28;20286;-73
2023/09/22 09:50:04;;;;;;;3.33;3.13;;;20.90;99.90;;;;;;5032218;28;20423;-73
2023/09/22 09:52:42;;;;;;;3.30;2.60;;;20.70;99.90;;;;;;5032284;28;20197;-73
2023/09/22 09:55:12;;;;;;;3.40;2.30;;;20.60;99.90;;;;;;5032313;28;20175;-71
2023/09/22 09:57:45;;;;;;;2.92;2.50;;;20.40;99.90;;;;;;5032356;28;20176;-72
2023/09/22 10:00:19;;;;;;;2.70;2.45;;;20.30;99.90;;;;;;5031882;28;20519;-72
2023/09/22 10:02:47;;;;;;;2.33;2.20;;;20.20;99.90;;;;;;5032290;28;20246;-73
2023/09/22 10:05:22;;;;;;;3.70;2.92;;;20.30;99.90;;;;;;5032104;28;20195;-71
2023/09/22 10:07:49;;;;;;;2.90;2.60;;;20.40;99.90;;;;;;5032135;28;20543;-72
2023/09/22 10:10:22;;;;;;;3.28;2.80;;;20.60;99.90;;;;;;5031391;28;20430;-72
2023/09/22 10:12:48;;;;;;;3.55;3.25;;;20.80;99.90;;;;;;5032078;28;20188;-72
2023/09/22 10:15:14;;;;;;;3.00;2.80;;;21.00;99.90;;;;;;5031839;28;20172;-72
2023/09/22 10:17:39;;;;;;;2.80;2.60;;;20.80;99.90;;;;;;5031998;28;20199;-71
2023/09/22 10:20:10;;;;;;;2.70;2.50;;;20.60;99.90;;;;;;5031349;28;20536;-71
2023/09/22 10:22:37;;;;;;;3.70;2.42;;;20.50;99.90;;;;;;5031982;28;20682;-73
2023/09/22 10:25:15;;;;;;;2.22;2.03;;;20.40;99.90;;;;;;5031890;28;20207;-73
2023/09/22 10:27:57;;;;;;;2.23;2.10;;;20.20;99.90;;;;;;5031753;28;20199;-72
2023/09/22 10:30:44;;;;;;;2.55;2.00;;;20.30;99.90;;;;;;5031423;28;20171;-71
2023/09/22 10:33:15;;;;;;;4.50;2.53;;;20.40;99.90;;;;;;5031546;28;20751;-71
2023/09/22 10:35:42;;;;;;;2.60;2.40;;;20.40;99.90;;;;;;5031786;28;20187;-73
2023/09/22 10:38:10;;;;;;;2.27;2.07;;;20.40;99.90;;;;;;5031473;28;20595;-71
2023/09/22 10:40:36;;;;;;;5.50;2.92;;;20.70;99.90;;;;;;5031299;28;20692;-74
2023/09/22 10:43:03;;;;;;;4.75;2.45;;;21.00;99.90;;;;;;5031376;28;20214;-72
2023/09/22 10:45:29;;;;;;;2.30;2.10;;;20.90;99.90;;;;;;5023372;28;20233;-71
2023/09/22 10:47:58;;;;;;;2.40;2.25;;;20.70;99.90;;;;;;5031511;28;20211;-71
2023/09/22 10:50:31;;;;;;;2.30;2.17;;;20.70;99.90;;;;;;5030946;28;20637;-72
2023/09/22 10:53:05;;;;;;;2.22;2.03;;;20.80;99.90;;;;;;5031493;28;20214;-71
2023/09/22 10:55:45;;;;;;;4.93;2.30;;;21.00;99.90;;;;;;5031175;28;20179;-72
2023/09/22 10:58:16;;;;;;;2.67;2.20;;;21.30;99.90;;;;;;5031405;28;20266;-71
2023/09/22 11:00:55;;;;;;;2.43;2.20;;;21.30;99.90;;;;;;5031285;28;20180;-72
2023/09/22 11:03:20;;;;;;;4.05;2.70;;;21.30;99.90;;;;;;5031117;28;20179;-71
2023/09/22 11:05:57;;;;;;;4.03;2.55;;;21.10;99.90;;;;;;5039541;28;20201;-72
2023/09/22 11:08:24;;;;;;;3.05;2.80;;;21.00;99.90;;;;;;5031097;28;20236;-72
2023/09/22 11:10:51;;;;;;;3.95;3.53;;;21.00;99.90;;;;;;5031020;28;20183;-73
2023/09/22 11:13:18;;;;;;;4.75;4.35;;;21.10;99.90;;;;;;5030963;28;20583;-73
2023/09/22 11:15:50;;;;;;;4.40;3.97;;;21.40;99.90;;;;;;5031247;28;20168;-72
2023/09/22 11:18:25;;;;;;;3.25;2.95;;;21.70;99.90;;;;;;5031034;28;20222;-72
2023/09/22 11:21:10;;;;;;;3.38;3.17;;;21.80;99.90;;;;;;5036239;28;20542;-71
2023/09/22 11:23:38;;;;;;;5.55;3.67;;;21.90;99.90;;;;;;5023682;28;20183;-72
2023/09/22 11:26:07;;;;;;;4.00;3.80;;;22.00;99.90;;;;;;5031081;28;20728;-72
2023/09/22 11:28:33;;;;;;;5.07;4.78;;;22.10;99.90;;;;;;5021890;28;20233;-72
2023/09/22 11:31:14;;;;;;;4.45;4.05;;;22.30;99.90;;;;;;5030967;28;20211;-72
2023/09/22 11:33:41;;;;;;;3.13;2.92;;;22.60;99.90;;;;;;5030847;28;20566;-72
2023/09/22 11:36:08;;;;;;;2.83;2.40;;;22.90;99.90;;;;;;5030841;28;20179;-72
2023/09/22 11:38:35;;;;;;;2.70;2.50;;;23.10;99.90;;;;;;5032879;28;20245;-72
2023/09/22 11:41:16;;;;;;;2.55;2.08;;;23.00;99.90;;;;;;5040957;28;20182;-73
2023/09/22 11:43:59;;;;;;;5.10;2.15;;;23.20;99.90;;;;;;5030435;28;20187;-71
2023/09/22 11:46:27;;;;;;;3.67;2.13;;;23.50;99.90;;;;;;5030283;28;20733;-72
2023/09/22 11:49:04;;;;;;;2.63;2.20;;;23.60;99.90;;;;;;5030928;28;20401;-73
2023/09/22 11:51:58;;;;;;;2.72;2.08;;;24.00;99.90;;;;;;5030239;28;20211;-74
2023/09/22 11:54:25;;;;;;;21.23;4.40;;;23.70;99.90;;;;;;5030268;28;20321;-72
2023/09/22 11:56:54;;;;;;;2.00;1.90;;;23.60;99.90;;;;;;5039053;28;20187;-74
2023/09/22 11:59:21;;;;;;;2.40;2.20;;;23.50;99.90;;;;;;5030440;28;20176;-72
2023/09/22 12:01:51;;;;;;;2.22;2.03;;;23.30;99.90;;;;;;5030529;28;20569;-72
2023/09/22 12:04:19;;;;;;;3.97;2.38;;;22.80;99.90;;;;;;5030508;28;20175;-72
2023/09/22 12:06:45;;;;;;;2.97;2.50;;;22.50;99.90;;;;;;5030824;28;20286;-71
2023/09/22 12:09:12;;;;;;;2.45;2.25;;;22.40;99.90;;;;;;5032299;28;20639;-72
2023/09/22 12:11:39;;;;;;;3.88;2.47;;;22.70;99.90;;;;;;5035301;28;20205;-72
2023/09/22 12:14:05;;;;;;;2.40;2.15;;;23.00;99.90;;;;;;5032118;28;20190;-72
2023/09/22 12:16:31;;;;;;;2.00;1.80;;;23.30;99.90;;;;;;5031685;28;20588;-72
2023/09/22 12:18:57;;;;;;;2.63;2.25;;;23.30;99.90;;;;;;5040337;28;20176;-72
2023/09/22 12:21:25;;;;;;;2.38;2.17;;;22.70;99.90;;;;;;5034146;28;20591;-73
2023/09/22 12:23:50;;;;;;;3.55;3.00;;;22.20;99.90;;;;;;5030864;28;20190;-73
2023/09/22 12:26:16;;;;;;;2.92;2.28;;;22.10;99.90;;;;;;5037522;28;20571;-72
2023/09/22 12:28:42;;;;;;;2.45;2.25;;;21.90;99.90;;;;;;5038768;28;20639;-73
2023/09/22 12:31:09;;;;;;;4.40;2.22;;;21.60;99.90;;;;;;5033918;28;20490;-72
2023/09/22 12:33:35;;;;;;;12.25;3.33;;;21.60;99.90;;;;;;5024759;28;20191;-72
2023/09/22 12:36:01;;;;;;;6.00;2.60;;;21.50;99.90;;;;;;5037939;28;20262;-73
2023/09/22 12:38:27;;;;;;;3.30;2.83;;;21.30;99.90;;;;;;5034629;28;20690;-72
2023/09/22 12:40:52;;;;;;;5.60;3.45;;;21.00;99.90;;;;;;5033809;28;20232;-72
2023/09/22 12:43:18;;;;;;;6.57;2.60;;;20.90;99.90;;;;;;5033725;28;20655;-72
2023/09/22 12:45:44;;;;;;;29.38;4.55;;;20.90;99.90;;;;;;5043504;28;20187;-73
2023/09/22 12:48:13;;;;;;;8.43;3.30;;;20.90;99.90;;;;;;5033648;28;20737;-72